Time;durP1;ratioP1;P1;durP2;ratioP2;P2;SDS_P1;SDS_P2;PMS_P1;PMS_P2;Temp;Humidity;BMP_temperature;BMP_pressure;BME280_temperature;BME280_humidity;BME280_pressure;Samples;Min_cycle;Max_cycle;Signal;HPM_P1;HPM_P2
2022/12/16 00:02:15;;;;;;;37.25;20.42;;;1.80;89.30;;;;;;4977746;28;20061;-73
2022/12/16 00:04:40;;;;;;;36.22;20.80;;;1.80;89.20;;;;;;4980836;28;20119;-73
2022/12/16 00:07:06;;;;;;;37.53;20.98;;;1.80;89.20;;;;;;4987589;28;20034;-73
2022/12/16 00:09:31;;;;;;;36.17;20.40;;;1.90;89.30;;;;;;4987475;28;20037;-72
2022/12/16 00:11:57;;;;;;;34.05;19.13;;;1.80;89.00;;;;;;4981759;28;20601;-73
2022/12/16 00:14:22;;;;;;;32.08;19.08;;;1.80;88.90;;;;;;4989837;28;20937;-71
2022/12/16 00:16:48;;;;;;;33.05;18.58;;;1.80;89.00;;;;;;4987840;28;20133;-72
2022/12/16 00:19:14;;;;;;;33.42;18.83;;;1.80;88.90;;;;;;4984080;28;20034;-72
2022/12/16 00:21:39;;;;;;;33.78;19.35;;;1.80;89.10;;;;;;4987645;28;20034;-73
2022/12/16 00:24:05;;;;;;;37.33;19.98;;;1.80;89.10;;;;;;4986544;28;20034;-72
2022/12/16 00:26:30;;;;;;;32.92;19.08;;;1.80;89.10;;;;;;4987066;28;20039;-72
2022/12/16 00:28:57;;;;;;;32.63;18.60;;;1.80;89.20;;;;;;4985712;28;20103;-72
2022/12/16 00:31:23;;;;;;;32.22;18.95;;;1.80;89.10;;;;;;4986924;28;20031;-71
2022/12/16 00:33:48;;;;;;;34.72;19.70;;;1.90;89.20;;;;;;4977391;28;20081;-71
2022/12/16 00:36:14;;;;;;;32.78;19.08;;;1.90;89.30;;;;;;4981095;28;20026;-72
2022/12/16 00:38:40;;;;;;;35.08;20.40;;;1.90;89.30;;;;;;4975224;28;20031;-72
2022/12/16 00:41:05;;;;;;;35.75;19.25;;;1.90;89.20;;;;;;4978532;28;20054;-72
2022/12/16 00:43:31;;;;;;;37.28;20.70;;;1.90;89.10;;;;;;4977800;28;20045;-72
2022/12/16 00:45:57;;;;;;;36.70;19.98;;;2.00;89.20;;;;;;4975887;28;20035;-72
2022/12/16 00:48:23;;;;;;;35.25;20.10;;;2.00;89.10;;;;;;4977538;28;20034;-71
2022/12/16 00:50:51;;;;;;;37.15;20.20;;;2.00;89.00;;;;;;4975317;28;21958;-72
2022/12/16 00:53:17;;;;;;;36.13;20.08;;;2.00;89.40;;;;;;4978117;28;20034;-71
2022/12/16 00:55:42;;;;;;;36.95;20.60;;;2.00;88.90;;;;;;4979818;28;20034;-71
2022/12/16 00:58:08;;;;;;;36.03;19.50;;;2.00;89.00;;;;;;4979639;28;20089;-71
2022/12/16 01:00:34;;;;;;;37.10;20.75;;;2.00;89.00;;;;;;4974717;28;20121;-71
2022/12/16 01:03:00;;;;;;;37.78;19.90;;;2.00;88.90;;;;;;4976515;28;20049;-70
2022/12/16 01:05:26;;;;;;;36.42;19.95;;;2.00;88.90;;;;;;4976545;28;20045;-71
2022/12/16 01:07:53;;;;;;;38.35;20.75;;;2.00;88.90;;;;;;4978054;28;20049;-71
2022/12/16 01:10:19;;;;;;;41.15;21.92;;;2.00;88.90;;;;;;4983094;28;20030;-71
2022/12/16 01:12:44;;;;;;;40.20;21.48;;;2.00;88.90;;;;;;4976857;28;20107;-71
2022/12/16 01:15:12;;;;;;;37.05;20.73;;;2.00;88.90;;;;;;4977494;28;20043;-71
2022/12/16 01:17:38;;;;;;;39.72;20.52;;;2.10;88.90;;;;;;4982702;28;20042;-71
2022/12/16 01:20:04;;;;;;;36.53;20.85;;;2.10;88.90;;;;;;4978775;28;20628;-71
2022/12/16 01:22:31;;;;;;;36.60;20.77;;;2.10;88.90;;;;;;4988018;28;20045;-71
2022/12/16 01:24:58;;;;;;;39.63;20.20;;;2.10;88.80;;;;;;4986125;28;20042;-70
2022/12/16 01:27:23;;;;;;;39.13;20.25;;;2.10;88.80;;;;;;4987708;28;20671;-71
2022/12/16 01:29:49;;;;;;;38.22;21.05;;;2.10;88.80;;;;;;4987867;28;20502;-71
2022/12/16 01:32:15;;;;;;;38.92;21.98;;;2.20;88.80;;;;;;4983532;28;20037;-71
2022/12/16 01:34:41;;;;;;;39.63;21.60;;;2.20;88.70;;;;;;4981661;28;20030;-70
2022/12/16 01:37:11;;;;;;;36.63;20.05;;;2.20;88.50;;;;;;4982960;28;20050;-71
2022/12/16 01:39:37;;;;;;;38.00;21.08;;;2.20;88.50;;;;;;4981757;28;20419;-71
2022/12/16 01:42:04;;;;;;;41.08;21.40;;;2.20;88.60;;;;;;4977739;28;20062;-70
2022/12/16 01:44:29;;;;;;;39.25;21.83;;;2.20;88.40;;;;;;4979861;28;20411;-70
2022/12/16 01:47:02;;;;;;;38.17;21.38;;;2.20;88.40;;;;;;4978915;28;20061;-70
2022/12/16 01:49:41;;;;;;;39.13;21.40;;;2.20;88.40;;;;;;4980653;28;20034;-71
2022/12/16 01:52:12;;;;;;;41.38;22.10;;;2.20;88.40;;;;;;4980487;28;20121;-69
2022/12/16 01:54:45;;;;;;;42.38;21.95;;;2.20;88.40;;;;;;4983227;28;20373;-70
2022/12/16 01:57:19;;;;;;;40.97;22.33;;;2.20;88.40;;;;;;4978600;28;20034;-71
2022/12/16 01:59:48;;;;;;;37.22;21.75;;;2.20;88.40;;;;;;4980311;28;20038;-71
2022/12/16 02:02:14;;;;;;;40.13;21.65;;;2.20;88.30;;;;;;4978914;28;20049;-70
2022/12/16 02:05:19;;;;;;;42.42;23.23;;;2.20;88.30;;;;;;4984320;28;20039;-70
2022/12/16 02:07:25;;;;;;;41.10;22.40;;;2.20;88.20;;;;;;4983735;28;20034;-71
2022/12/16 02:09:51;;;;;;;40.80;22.42;;;2.20;88.20;;;;;;4981282;28;20470;-69
2022/12/16 02:12:24;;;;;;;38.72;22.13;;;2.10;88.00;;;;;;4980830;28;20031;-69
2022/12/16 02:15:23;;;;;;;41.03;21.98;;;2.10;88.10;;;;;;4987467;28;20038;-70
2022/12/16 02:17:55;;;;;;;43.22;22.83;;;2.10;88.40;;;;;;4983201;28;20062;-70
2022/12/16 02:20:58;;;;;;;40.40;21.83;;;2.10;88.40;;;;;;4981445;28;20034;-70
2022/12/16 02:23:50;;;;;;;39.63;22.40;;;2.00;88.40;;;;;;4980314;28;20038;-70
2022/12/16 02:27:00;;;;;;;43.33;23.42;;;2.00;88.60;;;;;;4982392;28;20077;-70
2022/12/16 02:29:44;;;;;;;44.13;22.58;;;2.00;88.70;;;;;;4923644;28;20591;-70
2022/12/16 02:32:34;;;;;;;41.45;23.00;;;2.10;88.60;;;;;;4922711;28;20043;-69
2022/12/16 02:35:23;;;;;;;42.63;23.25;;;2.00;88.60;;;;;;4969633;28;20405;-69
2022/12/16 02:37:52;;;;;;;40.67;22.05;;;2.00;88.60;;;;;;4982965;28;20449;-70
2022/12/16 02:40:41;;;;;;;37.83;21.15;;;2.00;88.50;;;;;;4981547;28;20031;-70
2022/12/16 02:43:14;;;;;;;42.83;23.70;;;2.00;88.60;;;;;;4975549;28;21989;-70
2022/12/16 02:45:41;;;;;;;40.63;22.80;;;2.00;88.50;;;;;;4979867;28;20062;-70
2022/12/16 02:48:07;;;;;;;40.58;22.83;;;2.00;88.40;;;;;;4980296;28;20466;-70
2022/12/16 02:50:38;;;;;;;42.75;23.55;;;2.00;88.40;;;;;;4981287;28;20117;-70
2022/12/16 02:53:07;;;;;;;40.10;22.92;;;2.00;88.30;;;;;;4982378;28;20058;-70
2022/12/16 02:56:08;;;;;;;39.28;22.27;;;2.00;88.20;;;;;;4985122;28;20030;-70
2022/12/16 02:58:59;;;;;;;37.95;21.65;;;2.00;88.30;;;;;;4982005;28;20130;-70
2022/12/16 03:01:46;;;;;;;40.28;20.58;;;2.00;88.40;;;;;;4980313;28;20039;-69
2022/12/16 03:04:19;;;;;;;36.83;20.55;;;2.00;88.40;;;;;;4986309;28;20034;-69
2022/12/16 03:06:48;;;;;;;39.13;21.65;;;2.00;88.40;;;;;;4982317;28;20057;-70
2022/12/16 03:09:18;;;;;;;35.58;20.50;;;2.00;88.60;;;;;;4983758;28;20490;-71
2022/12/16 03:11:45;;;;;;;41.05;22.27;;;1.90;88.30;;;;;;4982003;28;20034;-70
2022/12/16 03:14:14;;;;;;;39.38;21.63;;;1.90;88.40;;;;;;4983368;28;20515;-70
2022/12/16 03:16:41;;;;;;;41.05;23.10;;;2.00;88.60;;;;;;4981447;28;20510;-70
2022/12/16 03:19:10;;;;;;;39.38;22.00;;;2.00;88.40;;;;;;4979903;28;20037;-70
2022/12/16 03:22:00;;;;;;;37.90;21.73;;;2.00;88.20;;;;;;4981374;28;20046;-70
2022/12/16 03:24:26;;;;;;;36.60;21.63;;;1.90;88.20;;;;;;4979826;28;20023;-70
2022/12/16 03:27:10;;;;;;;40.00;21.83;;;1.90;88.20;;;;;;4981489;28;20034;-69
2022/12/16 03:29:35;;;;;;;39.03;22.02;;;1.90;88.20;;;;;;4981487;28;20038;-70
2022/12/16 03:32:24;;;;;;;36.92;20.95;;;1.90;88.20;;;;;;4982339;28;20031;-68
2022/12/16 03:35:22;;;;;;;39.15;21.15;;;1.90;88.30;;;;;;4982906;28;20038;-69
2022/12/16 03:37:51;;;;;;;37.67;21.30;;;1.90;88.40;;;;;;4971495;28;20335;-69
2022/12/16 03:40:18;;;;;;;36.45;20.65;;;1.90;88.30;;;;;;4979644;28;20045;-70
2022/12/16 03:42:44;;;;;;;37.75;21.48;;;1.90;88.30;;;;;;4979647;28;20125;-70
2022/12/16 03:45:21;;;;;;;40.08;22.23;;;1.90;88.40;;;;;;4976290;28;20096;-70
2022/12/16 03:47:55;;;;;;;37.88;21.55;;;1.90;88.40;;;;;;4982788;28;20070;-70
2022/12/16 03:50:26;;;;;;;39.93;21.07;;;1.90;88.30;;;;;;4982508;28;20031;-70
2022/12/16 03:52:52;;;;;;;40.95;22.30;;;1.90;88.40;;;;;;4979322;28;20049;-70
2022/12/16 03:55:17;;;;;;;39.05;22.10;;;1.80;88.40;;;;;;4983512;28;20038;-70
2022/12/16 03:57:43;;;;;;;39.05;21.98;;;1.80;88.60;;;;;;4981274;28;20049;-70
2022/12/16 04:00:09;;;;;;;43.63;22.55;;;1.80;88.70;;;;;;4981422;28;20030;-70
2022/12/16 04:02:35;;;;;;;41.25;22.65;;;1.90;88.70;;;;;;4983357;28;20532;-70
2022/12/16 04:05:00;;;;;;;42.65;23.02;;;1.80;88.70;;;;;;4983331;28;20034;-69
2022/12/16 04:07:26;;;;;;;40.83;22.08;;;1.90;88.80;;;;;;4980547;28;20056;-70
2022/12/16 04:09:52;;;;;;;39.70;21.98;;;1.90;88.70;;;;;;4985754;28;20061;-70
2022/12/16 04:26:08;;;;;;;34.88;19.58;;;2.00;88.80;;;;;;4978909;28;20042;-70
2022/12/16 04:28:34;;;;;;;34.65;18.58;;;2.00;88.70;;;;;;4986674;28;20031;-70
2022/12/16 04:30:59;;;;;;;35.90;19.40;;;2.00;88.60;;;;;;4978308;28;21237;-70
